createdAt,value
2017-03-27T00:00:32.905Z,26.10
2017-03-27T00:01:38.869Z,23.35
2017-03-27T00:02:44.826Z,20.80
2017-03-27T00:03:50.879Z,20.98
2017-03-27T00:04:56.602Z,21.78
2017-03-27T00:06:02.387Z,24.20
2017-03-27T00:07:08.458Z,20.65
2017-03-27T00:08:14.970Z,20.35
2017-03-27T00:09:20.806Z,18.98
2017-03-27T00:10:26.553Z,18.27
2017-03-27T00:11:32.290Z,20.47
2017-03-27T00:12:38.075Z,18.28
2017-03-27T00:13:43.782Z,18.28
2017-03-27T00:14:49.699Z,22.43
2017-03-27T00:15:55.498Z,18.37
2017-03-27T00:17:01.405Z,16.37
2017-03-27T00:18:07.146Z,19.88
2017-03-27T00:19:12.920Z,21.07
2017-03-27T00:20:18.730Z,19.97
2017-03-27T00:21:24.586Z,16.87
2017-03-27T00:22:30.563Z,18.30
2017-03-27T00:23:36.410Z,16.80
2017-03-27T00:24:42.228Z,18.10
2017-03-27T00:25:47.959Z,16.50
2017-03-27T00:26:53.809Z,20.22
2017-03-27T00:27:59.760Z,26.07
2017-03-27T00:29:05.612Z,20.43
2017-03-27T00:30:11.291Z,20.27
2017-03-27T00:31:17.125Z,22.35
2017-03-27T00:32:23.078Z,23.73
2017-03-27T00:33:28.926Z,20.95
2017-03-27T00:34:34.806Z,21.25
2017-03-27T00:35:41.278Z,18.07
2017-03-27T00:36:47.024Z,17.07
2017-03-27T00:37:52.896Z,15.90
2017-03-27T00:38:59.410Z,17.45
2017-03-27T00:40:05.170Z,19.93
2017-03-27T00:41:10.976Z,21.35
2017-03-27T00:42:16.714Z,18.28
2017-03-27T00:43:22.531Z,19.08
2017-03-27T00:44:28.311Z,19.38
2017-03-27T00:45:34.450Z,20.28
2017-03-27T00:46:40.338Z,17.57
2017-03-27T00:47:46.285Z,23.38
2017-03-27T00:48:52.021Z,16.83
2017-03-27T00:49:57.839Z,18.63
2017-03-27T00:51:03.795Z,17.92
2017-03-27T00:52:09.638Z,18.27
2017-03-27T00:53:15.618Z,18.48
2017-03-27T00:54:21.315Z,18.68
2017-03-27T00:55:27.781Z,21.88
2017-03-27T00:56:33.670Z,17.13
2017-03-27T00:57:39.427Z,16.45
2017-03-27T00:58:45.174Z,16.48
2017-03-27T00:59:51.007Z,17.03
2017-03-27T01:00:57.551Z,18.60
2017-03-27T01:02:03.487Z,15.72
2017-03-27T01:03:09.272Z,16.08
2017-03-27T01:04:15.245Z,16.17
2017-03-27T01:05:21.271Z,18.12
2017-03-27T01:06:27.846Z,18.20
2017-03-27T01:07:34.295Z,17.37
2017-03-27T01:08:40.400Z,20.62
2017-03-27T01:09:46.221Z,16.45
2017-03-27T01:10:51.967Z,18.78
2017-03-27T01:11:57.746Z,14.88
2017-03-27T01:13:03.786Z,18.42
2017-03-27T01:14:09.870Z,19.12
2017-03-27T01:15:15.639Z,12.48
2017-03-27T01:16:21.379Z,15.83
2017-03-27T01:17:27.346Z,17.35
2017-03-27T01:18:33.104Z,17.62
2017-03-27T01:19:39.046Z,15.30
2017-03-27T01:20:45.033Z,15.40
2017-03-27T01:21:50.855Z,15.77
2017-03-27T01:22:57.338Z,15.12
2017-03-27T01:24:03.683Z,13.88
2017-03-27T01:25:09.622Z,13.32
2017-03-27T01:26:16.131Z,14.48
2017-03-27T01:27:22.757Z,13.17
2017-03-27T01:28:28.513Z,14.92
2017-03-27T01:29:34.377Z,13.43
2017-03-27T01:30:40.153Z,14.92
2017-03-27T01:31:45.942Z,18.58
2017-03-27T01:32:51.839Z,16.37
2017-03-27T01:33:57.765Z,14.63
2017-03-27T01:35:04.257Z,17.52
2017-03-27T01:36:09.975Z,14.93
2017-03-27T01:37:15.738Z,15.35
2017-03-27T01:38:21.762Z,18.15
2017-03-27T01:39:27.790Z,14.57
2017-03-27T01:40:33.571Z,18.88
2017-03-27T01:41:39.386Z,17.22
2017-03-27T01:42:45.129Z,16.50
2017-03-27T01:43:50.854Z,17.43
2017-03-27T01:44:56.610Z,16.63
2017-03-27T01:46:02.603Z,18.65
2017-03-27T01:47:08.326Z,18.30
2017-03-27T01:48:14.102Z,19.13
2017-03-27T01:49:19.951Z,16.02
2017-03-27T01:50:25.990Z,17.85
2017-03-27T01:51:31.986Z,16.92
2017-03-27T01:52:38.551Z,18.15
2017-03-27T01:53:44.351Z,16.32
2017-03-27T01:54:50.137Z,14.18
2017-03-27T01:55:56.011Z,15.05
2017-03-27T01:57:01.785Z,15.70
2017-03-27T01:58:07.463Z,15.13
2017-03-27T01:59:13.206Z,13.58
2017-03-27T02:00:19.786Z,12.55
2017-03-27T02:01:25.557Z,13.00
2017-03-27T02:02:31.414Z,15.42
2017-03-27T02:03:37.164Z,11.15
2017-03-27T02:04:42.931Z,14.52
2017-03-27T02:05:48.751Z,12.87
2017-03-27T02:06:54.616Z,13.18
2017-03-27T02:08:00.655Z,18.18
2017-03-27T02:09:06.496Z,15.10
2017-03-27T02:10:12.311Z,17.07
2017-03-27T02:11:18.072Z,16.88
2017-03-27T02:12:23.879Z,13.68
2017-03-27T02:14:42.018Z,17.47
2017-03-27T02:15:47.986Z,14.35
2017-03-27T02:16:53.787Z,20.12
2017-03-27T02:17:59.582Z,16.28
2017-03-27T02:19:05.534Z,16.63
2017-03-27T02:20:11.435Z,14.30
2017-03-27T02:21:17.176Z,14.77
2017-03-27T02:22:22.962Z,13.03
2017-03-27T02:23:28.771Z,13.47
2017-03-27T02:24:34.592Z,12.50
2017-03-27T02:25:40.578Z,11.80
2017-03-27T02:26:46.470Z,12.98
2017-03-27T02:27:52.199Z,11.82
2017-03-27T02:28:58.112Z,20.62
2017-03-27T02:30:03.927Z,13.13
2017-03-27T02:31:09.853Z,12.25
2017-03-27T02:32:16.403Z,10.92
2017-03-27T02:33:23.217Z,13.65
2017-03-27T02:34:29.002Z,13.42
2017-03-27T02:35:34.894Z,14.17
2017-03-27T02:36:40.866Z,13.63
2017-03-27T02:37:46.637Z,14.17
2017-03-27T02:38:52.502Z,13.35
2017-03-27T02:39:58.323Z,12.70
2017-03-27T02:41:04.886Z,12.53
2017-03-27T02:42:10.787Z,13.15
2017-03-27T02:43:16.576Z,13.93
2017-03-27T02:44:22.436Z,12.92
2017-03-27T02:45:28.377Z,11.38
2017-03-27T02:46:34.115Z,12.98
2017-03-27T02:47:39.899Z,12.13
2017-03-27T02:48:45.671Z,12.63
2017-03-27T02:49:51.431Z,12.00
2017-03-27T02:50:57.175Z,11.30
2017-03-27T02:52:03.249Z,11.63
2017-03-27T02:53:09.075Z,10.93
2017-03-27T02:54:14.876Z,12.08
2017-03-27T02:55:20.607Z,10.97
2017-03-27T02:56:26.426Z,11.02
2017-03-27T02:57:32.489Z,10.92
2017-03-27T02:58:38.307Z,11.98
2017-03-27T02:59:44.381Z,11.70
2017-03-27T03:00:50.210Z,13.30
2017-03-27T03:01:56.777Z,13.53
2017-03-27T03:03:02.703Z,12.18
2017-03-27T03:04:08.606Z,12.38
2017-03-27T03:05:14.350Z,13.17
2017-03-27T03:06:20.205Z,12.90
2017-03-27T03:07:26.095Z,13.13
2017-03-27T03:08:32.093Z,12.90
2017-03-27T03:09:38.082Z,12.47
2017-03-27T03:10:44.091Z,12.72
2017-03-27T03:11:49.966Z,13.13
2017-03-27T03:12:55.930Z,14.32
2017-03-27T03:14:01.675Z,12.82
2017-03-27T03:15:08.197Z,13.38
2017-03-27T03:16:13.933Z,13.35
2017-03-27T03:17:19.835Z,13.08
2017-03-27T03:18:25.702Z,12.60
2017-03-27T03:19:31.629Z,14.50
2017-03-27T03:20:37.498Z,14.82
2017-03-27T03:21:43.339Z,12.57
2017-03-27T03:22:49.331Z,14.93
2017-03-27T03:23:55.795Z,12.27
2017-03-27T03:25:01.727Z,13.28
2017-03-27T03:26:07.722Z,13.05
2017-03-27T03:27:13.561Z,13.32
2017-03-27T03:28:19.463Z,13.58
2017-03-27T03:29:25.375Z,14.43
2017-03-27T03:30:31.193Z,13.23
2017-03-27T03:31:37.006Z,13.77
2017-03-27T03:32:42.799Z,13.87
2017-03-27T03:33:48.608Z,13.52
2017-03-27T03:34:54.434Z,12.27
2017-03-27T03:36:00.219Z,13.47
2017-03-27T03:37:06.094Z,13.68
2017-03-27T03:38:12.651Z,13.18
2017-03-27T03:39:18.463Z,12.63
2017-03-27T03:40:24.534Z,13.62
2017-03-27T03:41:30.482Z,13.53
2017-03-27T03:42:36.546Z,13.63
2017-03-27T03:43:42.364Z,13.45
2017-03-27T03:44:48.163Z,14.35
2017-03-27T03:45:54.238Z,13.77
2017-03-27T03:47:00.198Z,15.10
2017-03-27T03:48:06.803Z,13.78
2017-03-27T03:49:12.539Z,14.95
2017-03-27T03:50:18.282Z,12.08
2017-03-27T03:51:24.271Z,13.90
2017-03-27T03:52:30.138Z,13.32
2017-03-27T03:53:35.937Z,16.13
2017-03-27T03:54:41.778Z,14.35
2017-03-27T03:55:47.593Z,14.47
2017-03-27T03:56:53.350Z,15.40
2017-03-27T03:57:59.102Z,13.82
2017-03-27T03:59:04.868Z,15.08
2017-03-27T04:00:10.752Z,16.00
2017-03-27T04:01:16.536Z,14.93
2017-03-27T04:02:22.398Z,14.73
2017-03-27T04:03:28.240Z,13.50
2017-03-27T04:04:33.962Z,13.77
2017-03-27T04:05:39.737Z,13.03
2017-03-27T04:06:45.613Z,13.12
2017-03-27T04:07:51.643Z,14.17
2017-03-27T04:08:57.452Z,14.33
2017-03-27T04:10:03.246Z,13.07
2017-03-27T04:11:09.933Z,13.43
2017-03-27T04:12:15.904Z,13.87
2017-03-27T04:13:21.957Z,15.10
2017-03-27T04:14:27.915Z,14.47
2017-03-27T04:15:33.674Z,13.68
2017-03-27T04:16:39.530Z,12.52
2017-03-27T04:17:45.332Z,12.33
2017-03-27T04:18:51.290Z,13.13
2017-03-27T04:19:57.325Z,13.18
2017-03-27T04:21:03.181Z,13.45
2017-03-27T04:22:08.982Z,15.13
2017-03-27T04:23:14.712Z,15.42
2017-03-27T04:24:20.677Z,13.43
2017-03-27T04:25:26.401Z,15.35
2017-03-27T04:26:32.922Z,15.08
2017-03-27T04:27:38.741Z,14.42
2017-03-27T04:28:44.767Z,13.73
2017-03-27T04:29:50.550Z,12.85
2017-03-27T04:30:56.579Z,11.38
2017-03-27T04:32:02.389Z,12.32
2017-03-27T04:33:08.244Z,12.62
2017-03-27T04:34:14.106Z,13.18
2017-03-27T04:35:20.158Z,12.92
2017-03-27T04:36:26.046Z,14.02
2017-03-27T04:37:31.989Z,13.05
2017-03-27T04:38:37.685Z,12.98
2017-03-27T04:39:43.513Z,12.90
2017-03-27T04:40:49.258Z,13.12
2017-03-27T04:41:55.051Z,12.63
2017-03-27T04:43:00.866Z,12.40
2017-03-27T04:44:06.655Z,13.30
2017-03-27T04:45:12.442Z,15.40
2017-03-27T04:46:18.253Z,15.13
2017-03-27T04:47:24.091Z,16.00
2017-03-27T04:48:30.116Z,16.60
2017-03-27T04:49:36.070Z,15.70
2017-03-27T04:50:41.817Z,15.13
2017-03-27T04:51:47.642Z,17.10
2017-03-27T04:52:53.391Z,14.57
2017-03-27T04:53:59.156Z,14.18
2017-03-27T04:55:05.186Z,16.15
2017-03-27T04:56:11.083Z,16.32
2017-03-27T04:57:16.882Z,14.63
2017-03-27T04:58:22.940Z,13.43
2017-03-27T04:59:28.991Z,13.43
2017-03-27T05:00:34.718Z,13.55
2017-03-27T05:01:40.537Z,14.38
2017-03-27T05:02:46.542Z,14.17
2017-03-27T05:03:52.551Z,15.48
2017-03-27T05:04:58.364Z,15.85
2017-03-27T05:06:04.474Z,15.03
2017-03-27T05:07:11.061Z,14.87
2017-03-27T05:08:16.958Z,15.98
2017-03-27T05:09:22.779Z,15.60
2017-03-27T05:10:28.563Z,15.42
2017-03-27T05:11:34.414Z,16.00
2017-03-27T05:12:40.258Z,15.15
2017-03-27T05:13:46.283Z,14.25
2017-03-27T05:14:52.304Z,14.02
2017-03-27T05:15:58.347Z,14.78
2017-03-27T05:17:04.170Z,13.60
2017-03-27T05:18:09.990Z,13.70
2017-03-27T05:19:24.181Z,14.05
2017-03-27T05:20:30.849Z,14.72
2017-03-27T05:21:36.709Z,15.40
2017-03-27T05:22:42.570Z,14.85
2017-03-27T05:23:48.466Z,14.80
2017-03-27T05:24:54.263Z,17.37
2017-03-27T05:26:00.099Z,16.48
2017-03-27T05:27:05.956Z,14.50
2017-03-27T05:28:11.871Z,15.18
2017-03-27T05:29:17.903Z,18.80
2017-03-27T05:30:24.174Z,18.40
2017-03-27T05:31:29.934Z,18.93
2017-03-27T05:32:35.684Z,17.30
2017-03-27T05:33:41.469Z,17.35
2017-03-27T05:34:47.307Z,15.63
2017-03-27T05:35:53.377Z,15.70
2017-03-27T05:36:59.286Z,14.08
2017-03-27T05:38:05.874Z,16.48
2017-03-27T05:39:11.656Z,15.23
2017-03-27T05:40:17.661Z,19.28
2017-03-27T05:41:23.482Z,18.03
2017-03-27T05:42:29.272Z,17.47
2017-03-27T05:43:35.157Z,16.48
2017-03-27T05:44:41.219Z,18.25
2017-03-27T05:45:47.008Z,17.55
2017-03-27T05:46:52.884Z,15.97
2017-03-27T05:47:59.480Z,16.75
2017-03-27T05:49:05.170Z,21.72
2017-03-27T05:50:11.000Z,19.48
2017-03-27T05:51:18.001Z,18.28
2017-03-27T05:52:23.967Z,17.90
2017-03-27T05:53:29.922Z,19.72
2017-03-27T05:54:36.473Z,17.47
2017-03-27T05:55:42.254Z,16.85
2017-03-27T05:56:48.000Z,18.97
2017-03-27T05:57:53.823Z,18.93
2017-03-27T05:58:59.612Z,17.37
2017-03-27T06:00:05.525Z,18.80
2017-03-27T06:01:11.558Z,18.38
2017-03-27T06:02:18.204Z,17.13
2017-03-27T06:03:24.139Z,14.38
2017-03-27T06:04:30.122Z,16.00
2017-03-27T06:05:35.887Z,15.43
2017-03-27T06:06:41.846Z,18.52
2017-03-27T06:07:47.707Z,15.30
2017-03-27T06:08:54.268Z,16.40
2017-03-27T06:10:00.134Z,14.42
2017-03-27T06:11:05.950Z,16.28
2017-03-27T06:12:11.662Z,16.95
2017-03-27T06:13:18.147Z,16.98
2017-03-27T06:14:23.885Z,15.32
2017-03-27T06:15:29.891Z,16.83
2017-03-27T06:16:35.629Z,16.28
2017-03-27T06:17:41.511Z,16.25
2017-03-27T06:18:48.087Z,18.05
2017-03-27T06:19:54.030Z,16.85
2017-03-27T06:20:59.737Z,17.57
2017-03-27T06:22:05.570Z,15.37
2017-03-27T06:23:12.082Z,15.58
2017-03-27T06:24:17.809Z,15.33
2017-03-27T06:25:23.594Z,16.55
2017-03-27T06:26:29.458Z,15.67
2017-03-27T06:27:35.286Z,18.08
2017-03-27T06:28:41.255Z,17.85
2017-03-27T06:29:47.019Z,17.27
2017-03-27T06:30:52.801Z,17.53
2017-03-27T06:31:59.565Z,17.70
2017-03-27T06:33:05.339Z,17.90
2017-03-27T06:34:11.353Z,16.35
2017-03-27T06:35:17.131Z,15.73
2017-03-27T06:36:23.160Z,14.83
2017-03-27T06:37:29.163Z,14.30
2017-03-27T06:38:34.971Z,14.60
2017-03-27T06:39:40.718Z,15.27
2017-03-27T06:40:46.484Z,15.33
2017-03-27T06:41:52.240Z,14.85
2017-03-27T06:42:58.221Z,15.73
2017-03-27T06:44:03.962Z,15.97
2017-03-27T06:45:09.940Z,16.28
2017-03-27T06:46:15.780Z,14.60
2017-03-27T06:47:21.623Z,14.30
2017-03-27T06:48:27.614Z,15.53
2017-03-27T06:49:33.451Z,14.15
2017-03-27T06:50:39.370Z,15.98
2017-03-27T06:51:45.099Z,16.82
2017-03-27T06:52:51.119Z,17.10
2017-03-27T06:53:56.828Z,17.30
2017-03-27T06:55:02.629Z,17.67
2017-03-27T06:56:08.526Z,17.80
2017-03-27T06:57:14.455Z,18.27
2017-03-27T06:58:20.697Z,16.72
2017-03-27T06:59:26.631Z,16.47
2017-03-27T07:00:33.398Z,16.57
2017-03-27T07:01:39.340Z,17.62
2017-03-27T07:02:47.365Z,16.78
2017-03-27T07:03:53.417Z,19.38
2017-03-27T07:05:00.134Z,17.28
2017-03-27T07:06:06.003Z,18.10
2017-03-27T07:07:11.814Z,15.75
2017-03-27T07:08:17.575Z,17.37
2017-03-27T07:09:23.383Z,17.57
2017-03-27T07:10:29.178Z,15.72
2017-03-27T07:11:35.182Z,17.82
2017-03-27T07:12:40.914Z,16.62
2017-03-27T07:13:46.665Z,17.70
2017-03-27T07:14:52.691Z,17.20
2017-03-27T07:15:58.703Z,16.80
2017-03-27T07:17:04.393Z,17.93
2017-03-27T07:18:10.374Z,16.00
2017-03-27T07:19:16.214Z,17.70
2017-03-27T07:20:22.082Z,17.48
2017-03-27T07:21:27.825Z,17.52
2017-03-27T07:22:33.602Z,16.43
2017-03-27T07:23:40.090Z,16.08
2017-03-27T07:24:46.047Z,17.80
2017-03-27T07:25:51.879Z,16.92
2017-03-27T07:26:57.974Z,19.40
2017-03-27T07:28:03.759Z,16.92
2017-03-27T07:29:09.662Z,15.58
2017-03-27T07:30:15.425Z,16.98
2017-03-27T07:31:21.298Z,16.82
2017-03-27T07:32:27.183Z,18.42
2017-03-27T07:33:33.188Z,17.73
2017-03-27T07:34:38.950Z,17.13
2017-03-27T07:35:44.707Z,17.58
2017-03-27T07:36:50.539Z,17.95
2017-03-27T07:37:56.270Z,17.18
2017-03-27T07:39:02.235Z,19.43
2017-03-27T07:40:07.950Z,17.38
2017-03-27T07:41:13.751Z,19.35
2017-03-27T07:42:19.625Z,19.37
2017-03-27T07:43:25.567Z,19.87
2017-03-27T07:44:31.338Z,17.68
2017-03-27T07:45:37.206Z,17.38
2017-03-27T07:46:42.998Z,19.87
2017-03-27T07:47:48.774Z,18.57
2017-03-27T07:48:54.866Z,21.62
2017-03-27T07:50:00.606Z,17.35
2017-03-27T07:51:06.294Z,20.52
2017-03-27T07:52:12.109Z,18.55
2017-03-27T07:53:18.634Z,18.18
2017-03-27T07:54:24.527Z,18.73
2017-03-27T07:55:30.298Z,20.53
2017-03-27T07:56:36.055Z,18.50
2017-03-27T07:57:41.830Z,18.77
2017-03-27T07:58:48.633Z,17.95
2017-03-27T07:59:54.371Z,18.63
2017-03-27T08:01:00.255Z,20.22
2017-03-27T08:02:06.291Z,19.28
2017-03-27T08:03:12.089Z,21.93
2017-03-27T08:04:17.911Z,21.92
2017-03-27T08:05:23.703Z,19.33
2017-03-27T08:06:29.464Z,19.38
2017-03-27T08:07:35.243Z,19.22
2017-03-27T08:08:41.152Z,20.18
2017-03-27T08:09:47.098Z,19.80
2017-03-27T08:10:52.847Z,19.53
2017-03-27T08:11:58.678Z,19.17
2017-03-27T08:13:05.399Z,20.12
2017-03-27T08:14:11.424Z,19.87
2017-03-27T08:15:17.287Z,21.12
2017-03-27T08:16:23.292Z,18.18
2017-03-27T08:17:29.176Z,19.85
2017-03-27T08:18:35.099Z,18.97
2017-03-27T08:19:41.000Z,19.22
2017-03-27T08:20:46.938Z,18.52
2017-03-27T08:21:52.661Z,21.05
2017-03-27T08:22:58.448Z,19.17
2017-03-27T08:24:04.216Z,20.03
2017-03-27T08:25:10.040Z,18.48
2017-03-27T08:26:15.818Z,18.35
2017-03-27T08:27:21.620Z,19.07
2017-03-27T08:28:27.431Z,19.53
2017-03-27T08:29:33.333Z,16.98
2017-03-27T08:30:39.328Z,15.85
2017-03-27T08:31:45.409Z,18.07
2017-03-27T08:32:52.116Z,14.03
2017-03-27T08:33:58.666Z,20.12
2017-03-27T08:35:05.346Z,19.67
2017-03-27T08:36:11.133Z,17.42
2017-03-27T08:37:16.977Z,17.63
2017-03-27T08:38:22.870Z,19.28
2017-03-27T08:39:28.898Z,17.72
2017-03-27T08:40:35.466Z,17.90
2017-03-27T08:41:41.359Z,17.63
2017-03-27T08:42:47.857Z,18.25
2017-03-27T08:43:53.816Z,17.40
2017-03-27T08:44:59.777Z,14.75
2017-03-27T08:46:06.333Z,17.93
2017-03-27T08:47:12.216Z,16.28
2017-03-27T08:48:18.277Z,16.98
2017-03-27T08:49:24.198Z,16.97
2017-03-27T08:50:29.948Z,16.32
2017-03-27T08:51:35.748Z,16.82
2017-03-27T08:52:41.782Z,16.92
2017-03-27T08:53:48.345Z,16.03
2017-03-27T08:54:54.050Z,15.00
2017-03-27T08:55:59.781Z,14.38
2017-03-27T08:57:05.557Z,14.08
2017-03-27T08:58:12.126Z,16.02
2017-03-27T08:59:18.027Z,16.00
2017-03-27T09:00:24.009Z,13.28
2017-03-27T09:01:29.781Z,13.47
2017-03-27T09:02:35.633Z,14.20
2017-03-27T09:03:41.417Z,15.07
2017-03-27T09:04:47.203Z,14.00
2017-03-27T09:05:53.208Z,16.37
2017-03-27T09:06:58.957Z,12.65
2017-03-27T09:08:04.714Z,13.13
2017-03-27T09:09:10.434Z,13.00
2017-03-27T09:10:16.201Z,12.85
2017-03-27T09:11:21.997Z,13.17
2017-03-27T09:12:27.724Z,14.00
2017-03-27T09:13:33.470Z,12.93
2017-03-27T09:14:39.250Z,13.87
2017-03-27T09:15:45.244Z,14.88
2017-03-27T09:16:51.005Z,13.25
2017-03-27T09:17:56.855Z,12.80
2017-03-27T09:19:02.575Z,12.60
2017-03-27T09:20:09.230Z,14.03
2017-03-27T09:21:15.030Z,13.10
2017-03-27T09:22:21.097Z,13.45
2017-03-27T09:23:27.849Z,14.42
2017-03-27T09:24:33.785Z,14.63
2017-03-27T09:25:39.541Z,13.02
2017-03-27T09:26:45.327Z,13.55
2017-03-27T09:27:51.143Z,11.92
2017-03-27T09:28:57.190Z,11.28
2017-03-27T09:30:03.784Z,11.25
2017-03-27T09:31:10.498Z,12.58
2017-03-27T09:32:16.418Z,11.02
2017-03-27T09:33:22.259Z,11.35
2017-03-27T09:34:28.139Z,10.48
2017-03-27T09:35:34.216Z,11.70
2017-03-27T09:36:40.187Z,10.93
2017-03-27T09:37:46.234Z,11.52
2017-03-27T09:38:52.050Z,11.77
2017-03-27T09:39:57.991Z,10.30
2017-03-27T09:41:03.724Z,10.18
2017-03-27T09:42:09.526Z,10.90
2017-03-27T09:43:15.414Z,11.28
2017-03-27T09:44:21.206Z,10.05
2017-03-27T09:45:26.921Z,9.37
2017-03-27T09:46:33.410Z,10.27
2017-03-27T09:47:39.302Z,10.13
2017-03-27T09:48:45.113Z,10.12
2017-03-27T09:49:50.973Z,9.43
2017-03-27T09:50:56.930Z,9.00
2017-03-27T09:52:02.854Z,8.52
2017-03-27T09:53:08.594Z,8.45
2017-03-27T09:54:14.504Z,8.80
2017-03-27T09:55:20.538Z,9.27
2017-03-27T09:56:26.361Z,11.45
2017-03-27T09:57:32.131Z,9.20
2017-03-27T09:58:37.967Z,9.38
2017-03-27T09:59:43.716Z,8.52
2017-03-27T10:00:49.721Z,9.85
2017-03-27T10:01:55.499Z,9.28
2017-03-27T10:03:01.273Z,9.50
2017-03-27T10:04:07.059Z,8.08
2017-03-27T10:05:12.805Z,9.10
2017-03-27T10:06:19.351Z,8.68
2017-03-27T10:07:25.110Z,8.85
2017-03-27T10:08:30.861Z,8.32
2017-03-27T10:09:36.578Z,6.85
2017-03-27T10:10:42.682Z,8.73
2017-03-27T10:11:48.495Z,8.60
2017-03-27T10:12:54.349Z,9.60
2017-03-27T10:14:00.193Z,9.40
2017-03-27T10:15:06.057Z,9.37
2017-03-27T10:16:11.885Z,10.80
2017-03-27T10:17:17.693Z,10.05
2017-03-27T10:18:23.430Z,8.58
2017-03-27T10:19:29.415Z,11.52
2017-03-27T10:20:38.028Z,10.25
2017-03-27T10:21:48.477Z,12.58
2017-03-27T10:22:54.375Z,12.03
2017-03-27T10:24:00.137Z,11.02
2017-03-27T10:25:06.046Z,12.00
2017-03-27T10:26:11.837Z,10.18
2017-03-27T10:27:17.654Z,9.82
2017-03-27T10:28:23.598Z,13.53
2017-03-27T10:29:29.399Z,12.75
2017-03-27T10:30:35.181Z,11.58
2017-03-27T10:31:41.649Z,12.70
2017-03-27T10:32:48.290Z,12.38
2017-03-27T10:33:54.108Z,12.38
2017-03-27T10:35:00.117Z,12.60
2017-03-27T10:36:05.846Z,11.62
2017-03-27T10:37:11.599Z,11.10
2017-03-27T10:38:17.440Z,10.38
2017-03-27T10:39:23.455Z,11.95
2017-03-27T10:40:29.530Z,11.77
2017-03-27T10:41:35.335Z,13.68
2017-03-27T10:42:41.382Z,13.55
2017-03-27T10:43:47.129Z,12.68
2017-03-27T10:44:53.114Z,13.00
2017-03-27T10:45:58.950Z,12.90
2017-03-27T10:47:04.802Z,13.70
2017-03-27T10:48:10.542Z,14.85
2017-03-27T10:49:16.263Z,13.38
2017-03-27T10:50:22.059Z,10.80
2017-03-27T10:51:27.826Z,12.20
2017-03-27T10:52:34.403Z,10.58
2017-03-27T10:53:40.123Z,11.40
2017-03-27T10:54:46.153Z,11.63
2017-03-27T10:55:51.913Z,12.48
2017-03-27T10:56:58.354Z,11.37
2017-03-27T10:58:04.171Z,11.25
2017-03-27T10:59:10.092Z,12.73
2017-03-27T11:00:16.151Z,13.17
2017-03-27T11:01:22.079Z,12.37
2017-03-27T11:02:27.989Z,13.35
2017-03-27T11:03:33.966Z,12.30
2017-03-27T11:04:39.730Z,11.55
2017-03-27T11:05:45.798Z,13.97
2017-03-27T11:06:51.623Z,11.60
2017-03-27T11:07:57.467Z,14.02
2017-03-27T11:09:03.297Z,12.38
2017-03-27T11:10:09.786Z,11.98
2017-03-27T11:11:15.742Z,12.87
2017-03-27T11:12:21.611Z,11.20
2017-03-27T11:13:27.562Z,11.05
2017-03-27T11:14:33.553Z,12.12
2017-03-27T11:15:39.374Z,11.33
2017-03-27T11:16:45.239Z,9.87
2017-03-27T11:17:51.218Z,13.05
2017-03-27T11:18:57.283Z,11.30
2017-03-27T11:20:03.099Z,11.90
2017-03-27T11:21:09.114Z,12.07
2017-03-27T11:22:14.870Z,12.85
2017-03-27T11:23:20.833Z,16.35
2017-03-27T11:24:26.609Z,12.72
2017-03-27T11:25:33.129Z,12.23
2017-03-27T11:26:39.791Z,14.10
2017-03-27T11:27:45.546Z,14.05
2017-03-27T11:28:51.277Z,13.13
2017-03-27T11:29:57.175Z,12.97
2017-03-27T11:31:03.226Z,13.20
2017-03-27T11:32:09.050Z,7.03
2017-03-27T11:33:15.106Z,12.78
2017-03-27T11:34:20.886Z,10.60
2017-03-27T11:35:26.622Z,13.77
2017-03-27T11:36:32.433Z,14.45
2017-03-27T11:37:38.197Z,11.02
2017-03-27T11:38:44.050Z,13.42
2017-03-27T11:39:50.062Z,12.58
2017-03-27T11:40:55.770Z,14.25
2017-03-27T11:42:01.670Z,13.90
2017-03-27T11:43:07.390Z,12.20
2017-03-27T11:44:13.421Z,13.35
2017-03-27T11:45:19.369Z,13.17
2017-03-27T11:46:25.157Z,11.88
2017-03-27T11:47:30.889Z,11.85
2017-03-27T11:48:36.728Z,14.70
2017-03-27T11:49:42.790Z,12.97
2017-03-27T11:50:48.810Z,13.30
2017-03-27T11:51:54.681Z,15.07
2017-03-27T11:53:00.497Z,16.65
2017-03-27T11:54:06.305Z,15.43
2017-03-27T11:55:12.059Z,11.15
2017-03-27T11:56:18.083Z,14.38
2017-03-27T11:57:23.879Z,13.53
2017-03-27T11:58:29.696Z,14.85
2017-03-27T11:59:35.527Z,14.42
2017-03-27T12:00:41.319Z,16.47
2017-03-27T12:01:47.053Z,16.03
2017-03-27T12:02:53.528Z,15.67
2017-03-27T12:03:59.630Z,18.25
2017-03-27T12:05:06.153Z,13.35
2017-03-27T12:06:11.932Z,15.28
2017-03-27T12:07:17.906Z,15.95
2017-03-27T12:08:23.682Z,15.67
2017-03-27T12:09:29.459Z,19.10
2017-03-27T12:10:35.210Z,17.52
2017-03-27T12:11:40.907Z,18.35
2017-03-27T12:12:46.703Z,17.30
2017-03-27T12:13:53.230Z,21.22
2017-03-27T12:14:59.086Z,19.88
2017-03-27T12:16:04.817Z,23.25
2017-03-27T12:17:11.388Z,23.23
2017-03-27T12:18:17.261Z,21.52
2017-03-27T12:19:23.163Z,21.83
2017-03-27T12:20:29.253Z,22.40
2017-03-27T12:21:35.025Z,22.45
2017-03-27T12:22:41.529Z,22.57
2017-03-27T12:23:48.057Z,23.68
2017-03-27T12:24:53.797Z,23.83
2017-03-27T12:25:59.572Z,20.95
2017-03-27T12:27:05.326Z,21.98
2017-03-27T12:28:12.066Z,23.08
2017-03-27T12:29:17.853Z,23.02
2017-03-27T12:30:23.723Z,24.82
2017-03-27T12:31:29.534Z,21.87
2017-03-27T12:32:35.389Z,22.40
2017-03-27T12:33:41.650Z,21.95
2017-03-27T12:34:47.543Z,19.48
2017-03-27T12:35:53.279Z,16.00
2017-03-27T12:36:59.001Z,21.47
2017-03-27T12:38:04.762Z,20.20
2017-03-27T12:39:10.521Z,17.42
2017-03-27T12:40:16.294Z,18.33
2017-03-27T12:41:22.142Z,19.58
2017-03-27T12:42:27.844Z,18.77
2017-03-27T12:43:33.880Z,18.48
2017-03-27T12:44:39.658Z,19.53
2017-03-27T12:45:45.549Z,16.22
2017-03-27T12:46:51.316Z,20.28
2017-03-27T12:47:57.057Z,19.05
2017-03-27T12:49:02.947Z,18.13
2017-03-27T12:50:09.172Z,16.35
2017-03-27T12:51:14.873Z,17.18
2017-03-27T12:52:20.675Z,18.85
2017-03-27T12:53:26.497Z,15.18
2017-03-27T12:54:32.548Z,17.72
2017-03-27T12:55:38.297Z,17.62
2017-03-27T12:56:44.345Z,16.67
2017-03-27T12:57:50.102Z,14.28
2017-03-27T12:58:55.855Z,13.83
2017-03-27T13:00:01.677Z,16.50
2017-03-27T13:01:07.753Z,15.57
2017-03-27T13:02:14.401Z,17.10
2017-03-27T13:03:20.325Z,16.48
2017-03-27T13:04:26.271Z,17.10
2017-03-27T13:05:32.337Z,16.50
2017-03-27T13:06:38.069Z,18.82
2017-03-27T13:07:43.898Z,18.27
2017-03-27T13:08:49.774Z,19.38
2017-03-27T13:09:55.555Z,17.88
2017-03-27T13:11:02.264Z,17.17
2017-03-27T13:12:08.146Z,15.80
2017-03-27T13:13:14.149Z,16.25
2017-03-27T13:14:20.132Z,17.42
2017-03-27T13:15:25.910Z,17.37
2017-03-27T13:16:31.690Z,17.65
2017-03-27T13:17:37.753Z,15.02
2017-03-27T13:18:44.326Z,17.05
2017-03-27T13:19:50.077Z,15.48
2017-03-27T13:20:55.901Z,16.32
2017-03-27T13:22:01.791Z,17.22
2017-03-27T13:23:07.904Z,15.60
2017-03-27T13:24:13.790Z,15.73
2017-03-27T13:25:19.718Z,17.05
2017-03-27T13:26:25.443Z,13.62
2017-03-27T13:27:31.513Z,15.37
2017-03-27T13:28:38.071Z,15.80
2017-03-27T13:29:43.857Z,17.92
2017-03-27T13:30:49.628Z,17.67
2017-03-27T13:31:55.369Z,15.57
2017-03-27T13:33:01.094Z,19.50
2017-03-27T13:34:06.950Z,16.82
2017-03-27T13:35:12.736Z,16.00
2017-03-27T13:36:18.494Z,14.97
2017-03-27T13:37:24.433Z,13.55
2017-03-27T13:38:30.324Z,15.08
2017-03-27T13:39:36.412Z,16.70
2017-03-27T13:40:42.229Z,16.88
2017-03-27T13:41:48.054Z,15.97
2017-03-27T13:42:53.871Z,17.10
2017-03-27T13:43:59.682Z,16.33
2017-03-27T13:45:05.527Z,15.97
2017-03-27T13:46:11.293Z,14.30
2017-03-27T13:47:17.133Z,16.83
2017-03-27T13:48:22.874Z,16.45
2017-03-27T13:49:28.636Z,17.57
2017-03-27T13:50:34.377Z,14.98
2017-03-27T13:51:40.270Z,15.55
2017-03-27T13:52:46.190Z,16.57
2017-03-27T13:53:52.069Z,15.93
2017-03-27T13:54:58.772Z,14.63
2017-03-27T13:56:04.549Z,16.17
2017-03-27T13:57:10.251Z,16.25
2017-03-27T13:58:16.055Z,17.78
2017-03-27T13:59:21.929Z,16.95
2017-03-27T14:00:28.499Z,14.62
2017-03-27T14:01:34.346Z,17.37
2017-03-27T14:02:40.314Z,16.90
2017-03-27T14:03:46.117Z,16.13
2017-03-27T14:04:52.139Z,15.82
2017-03-27T14:05:58.509Z,16.78
2017-03-27T14:07:05.223Z,16.18
2017-03-27T14:08:11.027Z,13.90
2017-03-27T14:09:16.902Z,17.75
2017-03-27T14:10:22.841Z,15.75
2017-03-27T14:11:28.607Z,16.77